createdAt,value
2022-08-09T00:01:48.379Z,100109.78
2022-08-09T00:04:34.648Z,100103.59
2022-08-09T00:07:10.527Z,100108.06
2022-08-09T00:09:38.776Z,100102.75
2022-08-09T00:12:07.131Z,100097.41
2022-08-09T00:14:37.777Z,100102.78
2022-08-09T00:17:07.293Z,100100.13
2022-08-09T00:19:35.868Z,100102.81
2022-08-09T00:22:04.522Z,100095.69
2022-08-09T00:24:32.878Z,100099.31
2022-08-09T00:27:01.831Z,100099.34
2022-08-09T00:30:16.353Z,100098.50
2022-08-09T00:32:25.307Z,100102.94
2022-08-09T00:34:54.376Z,100108.31
2022-08-09T00:37:21.697Z,100108.34
2022-08-09T00:40:13.363Z,100102.19
2022-08-09T00:44:16.377Z,100115.53
2022-08-09T00:45:23.717Z,100110.16
2022-08-09T00:47:52.864Z,100119.91
2022-08-09T00:50:26.192Z,100135.84
2022-08-09T00:52:55.087Z,100153.59
2022-08-09T00:56:03.596Z,100152.66
2022-08-09T00:58:14.891Z,100153.53
2022-08-09T01:00:58.910Z,100166.03
2022-08-09T01:04:22.370Z,100166.88
2022-08-09T01:08:00.026Z,100178.47
2022-08-09T01:10:43.986Z,100174.84
2022-08-09T01:13:18.234Z,100181.94
2022-08-09T01:15:55.310Z,100177.41
2022-08-09T01:18:31.366Z,100177.34
2022-08-09T01:22:10.309Z,100181.78
2022-08-09T01:25:19.206Z,100183.63
2022-08-09T01:27:57.737Z,100188.19
2022-08-09T01:30:35.755Z,100180.16
2022-08-09T01:33:18.733Z,100191.81
2022-08-09T01:35:54.933Z,100206.13
2022-08-09T01:38:31.797Z,100199.97
2022-08-09T01:41:25.866Z,100210.72
2022-08-09T01:44:04.191Z,100203.63
2022-08-09T01:46:42.336Z,100206.31
2022-08-09T01:49:18.661Z,100201.00
2022-08-09T01:52:07.429Z,100206.38
2022-08-09T01:54:52.708Z,100216.19
2022-08-09T01:57:45.981Z,100215.34
2022-08-09T02:00:35.198Z,100222.53
2022-08-09T02:03:06.654Z,100218.94
2022-08-09T02:05:38.069Z,100218.09
2022-08-09T02:08:38.949Z,100211.00
2022-08-09T02:11:16.860Z,100214.59
2022-08-09T02:14:06.124Z,100211.91
2022-08-09T02:16:53.014Z,100215.50
2022-08-09T02:19:38.939Z,100213.72
2022-08-09T02:22:37.102Z,100213.72
2022-08-09T02:25:42.414Z,100203.94
2022-08-09T02:28:25.525Z,100208.34
2022-08-09T02:31:11.426Z,100204.81
2022-08-09T02:34:07.598Z,100212.84
2022-08-09T02:36:39.724Z,100199.47
2022-08-09T02:39:33.653Z,100196.81
2022-08-09T02:42:07.561Z,100206.59
2022-08-09T02:44:40.992Z,100204.81
2022-08-09T02:47:14.073Z,100197.69
2022-08-09T02:50:01.297Z,100201.25
2022-08-09T02:52:58.080Z,100202.16
2022-08-09T02:55:39.473Z,100205.69
2022-08-09T02:58:32.771Z,100205.69
2022-08-09T03:01:11.356Z,100205.66
2022-08-09T03:04:18.204Z,100203.88
2022-08-09T03:06:39.492Z,100205.66
2022-08-09T03:09:09.841Z,100205.66
2022-08-09T03:12:09.653Z,100208.31
2022-08-09T03:14:29.233Z,100208.31
2022-08-09T03:17:01.511Z,100207.47
2022-08-09T03:19:59.162Z,100202.13
2022-08-09T03:22:25.420Z,100190.56
2022-08-09T03:25:21.798Z,100198.56
2022-08-09T03:27:52.786Z,100189.66
2022-08-09T03:30:29.482Z,100198.56
2022-08-09T03:33:17.645Z,100194.13
2022-08-09T03:36:12.737Z,100194.13
2022-08-09T03:38:43.612Z,100189.66
2022-08-09T03:41:16.587Z,100198.56
2022-08-09T03:44:04.036Z,100183.44
2022-08-09T03:46:35.326Z,100190.53
2022-08-09T03:49:07.873Z,100188.78
2022-08-09T03:51:56.288Z,100186.97
2022-08-09T03:54:38.513Z,100197.63
2022-08-09T03:57:20.675Z,100196.78
2022-08-09T03:59:56.118Z,100196.78
2022-08-09T04:02:31.505Z,100202.13
2022-08-09T04:05:06.706Z,100198.56
2022-08-09T04:07:53.596Z,100209.22
2022-08-09T04:10:29.336Z,100205.66
2022-08-09T04:13:03.772Z,100204.78
2022-08-09T04:15:52.434Z,100207.44
2022-08-09T04:18:21.514Z,100209.22
2022-08-09T04:20:51.259Z,100214.56
2022-08-09T04:23:23.189Z,100213.66
2022-08-09T04:25:53.523Z,100219.88
2022-08-09T04:28:34.163Z,100220.75
2022-08-09T04:31:07.900Z,100217.19
2022-08-09T04:33:51.708Z,100220.78
2022-08-09T04:36:28.567Z,100226.97
2022-08-09T04:39:00.641Z,100225.16
2022-08-09T04:41:32.131Z,100225.19
2022-08-09T04:44:06.309Z,100236.78
2022-08-09T04:46:56.729Z,100233.22
2022-08-09T04:49:30.498Z,100239.47
2022-08-09T04:52:21.835Z,100239.47
2022-08-09T04:54:59.471Z,100240.34
2022-08-09T04:57:47.448Z,100238.59
2022-08-09T05:00:16.846Z,100245.72
2022-08-09T05:02:51.891Z,100248.38
2022-08-09T05:05:32.162Z,100258.22
2022-08-09T05:08:10.340Z,100258.22
2022-08-09T05:10:42.789Z,100263.56
2022-08-09T05:13:13.005Z,100263.59
2022-08-09T05:15:47.974Z,100260.94
2022-08-09T05:18:39.707Z,100260.94
2022-08-09T05:21:20.744Z,100268.03
2022-08-09T05:23:59.736Z,100268.03
2022-08-09T05:26:37.413Z,100266.28
2022-08-09T05:29:24.094Z,100271.63
2022-08-09T05:32:00.517Z,100279.63
2022-08-09T05:34:32.673Z,100282.28
2022-08-09T05:37:11.254Z,100277.81
2022-08-09T05:39:43.524Z,100276.03
2022-08-09T05:42:17.273Z,100281.38
2022-08-09T05:44:54.252Z,100274.25
2022-08-09T05:47:27.119Z,100281.38
2022-08-09T05:50:23.221Z,100279.59
2022-08-09T05:52:52.092Z,100286.66
2022-08-09T05:55:24.018Z,100286.69
2022-08-09T05:57:57.371Z,100293.81
2022-08-09T06:00:33.110Z,100289.34
2022-08-09T06:03:04.067Z,100291.09
2022-08-09T06:05:58.126Z,100298.22
2022-08-09T06:08:25.673Z,100292.84
2022-08-09T06:10:55.612Z,100298.19
2022-08-09T06:13:24.190Z,100305.38
2022-08-09T06:15:52.949Z,100297.34
2022-08-09T06:18:24.962Z,100300.81
2022-08-09T06:20:57.686Z,100298.94
2022-08-09T06:23:58.538Z,100297.09
2022-08-09T06:26:22.413Z,100300.59
2022-08-09T06:29:00.368Z,100300.66
2022-08-09T06:31:39.277Z,100306.09
2022-08-09T06:34:19.571Z,100296.31
2022-08-09T06:36:46.862Z,100297.19
2022-08-09T06:39:16.394Z,100300.75
2022-08-09T06:42:06.370Z,100298.97
2022-08-09T06:44:32.174Z,100311.44
2022-08-09T06:47:01.127Z,100313.25
2022-08-09T06:50:11.539Z,100318.56
2022-08-09T06:52:17.588Z,100316.66
2022-08-09T06:54:48.880Z,100317.47
2022-08-09T06:57:18.438Z,100314.75
2022-08-09T07:00:48.871Z,100314.75
2022-08-09T07:02:41.629Z,100322.81
2022-08-09T07:05:10.678Z,100322.75
2022-08-09T07:07:59.727Z,100321.81
2022-08-09T07:10:31.283Z,100320.75
2022-08-09T07:13:05.374Z,100327.88
2022-08-09T07:16:39.286Z,100325.22
2022-08-09T07:18:35.926Z,100326.13
2022-08-09T07:21:07.736Z,100320.59
2022-08-09T07:23:36.160Z,100320.53
2022-08-09T07:26:04.322Z,100322.44
2022-08-09T07:28:34.811Z,100317.97
2022-08-09T07:31:04.915Z,100326.84
2022-08-09T07:33:52.730Z,100316.13
2022-08-09T07:36:20.872Z,100317.88
2022-08-09T07:38:58.235Z,100330.28
2022-08-09T07:41:28.035Z,100329.25
2022-08-09T07:44:02.182Z,100333.56
2022-08-09T07:46:29.911Z,100335.31
2022-08-09T07:48:59.515Z,100336.06
2022-08-09T07:52:06.332Z,100336.03
2022-08-09T07:54:28.014Z,100339.63
2022-08-09T07:56:58.591Z,100335.25
2022-08-09T07:59:34.479Z,100338.81
2022-08-09T08:02:19.109Z,100337.09
2022-08-09T08:04:48.638Z,100331.78
2022-08-09T08:08:44.515Z,100327.44
2022-08-09T08:10:10.743Z,100339.81
2022-08-09T08:12:45.037Z,100344.94
2022-08-09T08:15:23.204Z,100344.63
2022-08-09T08:17:58.038Z,100346.44
2022-08-09T08:20:33.143Z,100340.25
2022-08-09T08:23:16.200Z,100330.31
2022-08-09T08:25:50.083Z,100337.50
2022-08-09T08:28:31.868Z,100332.97
2022-08-09T08:31:10.573Z,100335.44
2022-08-09T08:33:53.057Z,100339.84
2022-08-09T08:36:29.745Z,100335.19
2022-08-09T08:38:59.700Z,100338.91
2022-08-09T08:41:50.457Z,100341.59
2022-08-09T08:44:23.116Z,100335.38
2022-08-09T08:47:03.214Z,100332.53
2022-08-09T08:49:46.301Z,100332.31
2022-08-09T08:55:19.150Z,100336.84
2022-08-09T08:57:57.421Z,100330.31
2022-08-09T09:00:34.757Z,100329.66
2022-08-09T09:03:08.708Z,100328.53
2022-08-09T09:05:58.223Z,100317.50
2022-08-09T09:08:38.042Z,100329.03
2022-08-09T09:11:13.740Z,100317.31
2022-08-09T09:13:57.234Z,100318.16
2022-08-09T09:16:35.119Z,100315.47
2022-08-09T09:19:37.149Z,100317.50
2022-08-09T09:22:26.832Z,100315.53
2022-08-09T09:26:01.354Z,100311.13
2022-08-09T09:28:05.101Z,100304.88
2022-08-09T09:30:41.888Z,100305.72
2022-08-09T09:33:14.256Z,100299.56
2022-08-09T09:36:20.226Z,100309.28
2022-08-09T09:38:57.984Z,100311.88
2022-08-09T09:41:33.241Z,100311.81
2022-08-09T09:44:31.399Z,100299.75
2022-08-09T09:47:11.683Z,100306.56
2022-08-09T09:50:15.293Z,100303.63
2022-08-09T09:52:37.346Z,100302.78
2022-08-09T09:55:16.141Z,100298.34
2022-08-09T09:58:17.010Z,100293.78
2022-08-09T10:00:58.443Z,100282.63
2022-08-09T10:03:57.028Z,100292.22
2022-08-09T10:06:42.716Z,100295.03
2022-08-09T10:09:22.312Z,100292.28
2022-08-09T10:12:12.486Z,100289.03
2022-08-09T10:14:48.704Z,100278.13
2022-08-09T10:17:50.895Z,100276.28
2022-08-09T10:20:32.347Z,100268.56
2022-08-09T10:23:23.824Z,100272.19
2022-08-09T10:26:04.372Z,100269.38
2022-08-09T10:28:38.690Z,100278.13
2022-08-09T10:34:11.450Z,100268.94
2022-08-09T10:36:54.255Z,100261.47
2022-08-09T10:39:23.360Z,100256.72
2022-08-09T10:41:56.065Z,100255.59
2022-08-09T10:44:30.323Z,100257.25
2022-08-09T10:47:28.171Z,100255.56
2022-08-09T10:51:09.642Z,100243.06
2022-08-09T10:53:54.273Z,100245.03
2022-08-09T10:56:30.822Z,100238.06
2022-08-09T10:59:01.590Z,100236.38
2022-08-09T11:03:15.573Z,100238.56
2022-08-09T11:04:30.803Z,100237.75
2022-08-09T11:07:00.276Z,100228.66
2022-08-09T11:09:56.441Z,100234.78
2022-08-09T11:12:32.017Z,100225.91
2022-08-09T11:15:33.855Z,100231.94
2022-08-09T11:18:05.837Z,100231.78
2022-08-09T11:20:49.758Z,100232.72
2022-08-09T11:23:24.105Z,100228.47
2022-08-09T11:25:57.774Z,100225.94
2022-08-09T11:28:55.916Z,100222.06
2022-08-09T11:31:52.791Z,100222.84
2022-08-09T11:34:43.842Z,100229.81
2022-08-09T11:37:41.012Z,100221.28
2022-08-09T11:40:32.058Z,100217.16
2022-08-09T11:43:02.695Z,100218.88
2022-08-09T11:47:14.438Z,100215.00
2022-08-09T11:50:55.020Z,100203.56
2022-08-09T11:53:15.454Z,100207.03
2022-08-09T11:55:53.644Z,100196.41
2022-08-09T11:58:53.876Z,100202.53
2022-08-09T12:02:17.807Z,100194.56
2022-08-09T12:04:37.484Z,100188.97
2022-08-09T12:07:08.419Z,100188.38
2022-08-09T12:09:36.760Z,100185.78
2022-08-09T12:12:28.667Z,100176.31
2022-08-09T12:15:50.094Z,100176.50
2022-08-09T12:18:29.861Z,100171.56
2022-08-09T12:21:26.397Z,100168.09
2022-08-09T12:24:09.683Z,100165.81
2022-08-09T12:28:59.088Z,100162.34
2022-08-09T12:30:04.338Z,100162.47
2022-08-09T12:32:44.998Z,100151.00
2022-08-09T12:35:19.061Z,100162.38
2022-08-09T12:37:50.091Z,100150.47
2022-08-09T12:40:24.973Z,100145.97
2022-08-09T12:42:54.072Z,100142.38
2022-08-09T12:45:34.237Z,100140.59
2022-08-09T12:48:31.082Z,100136.16
2022-08-09T12:51:00.435Z,100140.00
2022-08-09T12:53:40.828Z,100137.66
2022-08-09T12:56:43.325Z,100134.78
2022-08-09T12:59:19.949Z,100131.06
2022-08-09T13:02:07.233Z,100129.00
2022-08-09T13:04:38.741Z,100121.25
2022-08-09T13:07:19.533Z,100120.94
2022-08-09T13:10:04.633Z,100117.69
2022-08-09T13:12:32.509Z,100108.91
2022-08-09T13:15:10.128Z,100120.28
2022-08-09T13:18:03.806Z,100109.56
2022-08-09T13:21:03.810Z,100105.28
2022-08-09T13:24:44.372Z,100098.31
2022-08-09T13:26:42.756Z,100095.56
2022-08-09T13:29:28.625Z,100097.56
2022-08-09T13:32:19.414Z,100087.69
2022-08-09T13:34:54.059Z,100080.47
2022-08-09T13:37:51.120Z,100077.38
2022-08-09T13:41:54.828Z,100082.53
2022-08-09T13:42:59.811Z,100086.13
2022-08-09T13:46:42.450Z,100064.19
2022-08-09T13:48:21.941Z,100070.28
2022-08-09T13:51:19.770Z,100061.81
2022-08-09T13:53:48.597Z,100065.19
2022-08-09T13:56:16.518Z,100053.75
2022-08-09T13:58:47.787Z,100054.47
2022-08-09T14:02:01.105Z,100055.81
2022-08-09T14:04:05.211Z,100056.22
2022-08-09T14:06:43.668Z,100048.44
2022-08-09T14:09:13.737Z,100052.00
2022-08-09T14:11:47.756Z,100043.06
2022-08-09T14:14:23.862Z,100052.16
2022-08-09T14:16:55.612Z,100039.47
2022-08-09T14:19:24.354Z,100036.53
2022-08-09T14:21:52.476Z,100036.91
2022-08-09T14:24:22.279Z,100038.44
2022-08-09T14:27:01.264Z,100034.28
2022-08-09T14:30:35.227Z,100035.28
2022-08-09T14:32:20.086Z,100033.16
2022-08-09T14:34:59.600Z,100033.03
2022-08-09T14:37:28.584Z,100027.66
2022-08-09T14:40:09.696Z,100026.75
2022-08-09T14:42:37.776Z,100026.88
2022-08-09T14:46:57.173Z,100027.50
2022-08-09T14:48:02.460Z,100032.66
2022-08-09T14:50:34.942Z,100023.06
2022-08-09T14:53:13.708Z,100017.94
2022-08-09T14:55:47.774Z,100011.06
2022-08-09T14:58:19.113Z,100025.59
2022-08-09T15:00:47.924Z,100018.78
2022-08-09T15:03:20.184Z,100020.97
2022-08-09T15:05:52.423Z,100023.72
2022-08-09T15:08:25.628Z,100015.09
2022-08-09T15:11:00.756Z,100028.53
2022-08-09T15:13:48.280Z,100023.34
2022-08-09T15:16:19.992Z,100016.06
2022-08-09T15:18:49.111Z,100015.63
2022-08-09T15:21:56.132Z,100010.38
2022-08-09T15:24:11.455Z,100017.88
2022-08-09T15:26:45.886Z,100006.13
2022-08-09T15:30:48.244Z,100004.91
2022-08-09T15:32:03.543Z,100010.53
2022-08-09T15:34:34.512Z,100006.25
2022-08-09T15:37:23.985Z,99998.13
2022-08-09T15:39:54.694Z,99995.41
2022-08-09T15:42:22.487Z,100001.16
2022-08-09T15:44:50.871Z,100002.13
2022-08-09T15:47:22.274Z,99997.50
2022-08-09T15:50:03.891Z,99987.56
2022-08-09T15:52:36.476Z,99996.38
2022-08-09T15:55:09.037Z,99992.91
2022-08-09T15:57:44.253Z,99984.69
2022-08-09T16:00:25.878Z,99985.28
2022-08-09T16:02:56.136Z,99981.75
2022-08-09T16:05:47.636Z,99978.13
2022-08-09T16:08:31.274Z,99982.22
2022-08-09T16:11:01.680Z,99983.47
2022-08-09T16:14:03.978Z,99980.84
2022-08-09T16:16:27.998Z,99981.28
2022-08-09T16:18:56.229Z,99979.78
2022-08-09T16:21:25.142Z,99973.31
2022-08-09T16:24:01.734Z,99970.06
2022-08-09T16:26:35.041Z,99982.91
2022-08-09T16:29:12.570Z,99986.66
2022-08-09T16:32:20.316Z,99989.22
2022-08-09T16:34:55.743Z,99977.69
2022-08-09T16:37:55.710Z,99971.28
2022-08-09T16:40:12.627Z,99975.22
2022-08-09T16:42:40.764Z,99978.75
2022-08-09T16:45:18.703Z,99972.72
2022-08-09T16:48:43.171Z,99972.06
2022-08-09T16:50:38.641Z,99973.97
2022-08-09T16:53:06.895Z,99964.66
2022-08-09T16:55:58.698Z,99972.16
2022-08-09T16:58:25.182Z,99973.81
2022-08-09T17:00:53.489Z,99974.94
2022-08-09T17:03:22.999Z,99972.13
2022-08-09T17:06:03.402Z,99978.50
2022-08-09T17:08:42.960Z,99974.19
2022-08-09T17:11:41.073Z,99982.59
2022-08-09T17:14:26.116Z,99977.97
2022-08-09T17:17:02.895Z,99981.31
2022-08-09T17:19:46.562Z,99984.50
2022-08-09T17:22:28.818Z,99984.00
2022-08-09T17:25:03.563Z,99983.19
2022-08-09T17:27:38.667Z,99988.84
2022-08-09T17:30:13.016Z,99994.84
2022-08-09T17:32:45.225Z,99989.69
2022-08-09T17:35:14.685Z,99989.78
2022-08-09T17:38:12.452Z,99995.75
2022-08-09T17:40:35.131Z,100006.00
2022-08-09T17:43:32.783Z,100010.41
2022-08-09T17:46:03.416Z,100009.31
2022-08-09T17:48:38.289Z,100010.94
2022-08-09T17:51:18.754Z,100010.41
2022-08-09T17:53:54.629Z,100011.56
2022-08-09T17:56:35.930Z,100010.31
2022-08-09T17:59:09.449Z,100017.41
2022-08-09T18:02:06.870Z,100020.63
2022-08-09T18:04:31.630Z,100028.22
2022-08-09T18:07:00.272Z,100026.59
2022-08-09T18:09:41.222Z,100028.06
2022-08-09T18:12:19.514Z,100027.81
2022-08-09T18:14:55.087Z,100032.72
2022-08-09T18:18:03.924Z,100039.50
2022-08-09T18:20:54.197Z,100037.03
2022-08-09T18:23:05.647Z,100043.00
2022-08-09T18:25:52.365Z,100049.50
2022-08-09T18:30:36.153Z,100041.91
2022-08-09T18:31:25.024Z,100047.88
2022-08-09T18:33:59.808Z,100057.03
2022-08-09T18:36:54.316Z,100064.81
2022-08-09T18:39:32.807Z,100061.66
2022-08-09T18:42:29.513Z,100072.69
2022-08-09T18:45:08.709Z,100086.22
2022-08-09T18:47:37.856Z,100079.50
2022-08-09T18:50:34.187Z,100090.50
2022-08-09T18:53:13.408Z,100096.88
2022-08-09T18:56:06.390Z,100092.66
2022-08-09T18:58:34.827Z,100101.81
2022-08-09T19:01:06.382Z,100107.41
2022-08-09T19:03:38.496Z,100101.28
2022-08-09T19:06:24.202Z,100105.16
2022-08-09T19:10:13.243Z,100118.66
2022-08-09T19:12:36.539Z,100115.22
2022-08-09T19:15:07.969Z,100120.75
2022-08-09T19:17:54.473Z,100130.75
2022-08-09T19:20:26.348Z,100125.34
2022-08-09T19:23:16.585Z,100126.41
2022-08-09T19:26:02.010Z,100134.66
2022-08-09T19:29:15.364Z,100126.63
2022-08-09T19:31:51.144Z,100134.91
2022-08-09T19:34:24.616Z,100139.59
2022-08-09T19:36:57.735Z,100140.63
2022-08-09T19:39:28.872Z,100140.84
2022-08-09T19:42:41.230Z,100152.63
2022-08-09T19:45:15.377Z,100156.19
2022-08-09T19:47:44.404Z,100157.16
2022-08-09T19:50:50.204Z,100162.50
2022-08-09T19:53:04.804Z,100159.88
2022-08-09T19:55:52.892Z,100159.00
2022-08-09T19:58:25.548Z,100170.66
2022-08-09T20:00:58.380Z,100166.38
2022-08-09T20:04:18.114Z,100175.41
2022-08-09T20:06:23.390Z,100167.31
2022-08-09T20:08:57.233Z,100175.34
2022-08-09T20:11:42.949Z,100177.13
2022-08-09T20:14:50.097Z,100180.88
2022-08-09T20:17:19.877Z,100177.50
2022-08-09T20:19:53.917Z,100181.16
2022-08-09T20:22:24.174Z,100187.50
2022-08-09T20:24:59.324Z,100190.34
2022-08-09T20:27:29.126Z,100194.91
2022-08-09T20:29:57.941Z,100202.16
2022-08-09T20:32:31.258Z,100201.25
2022-08-09T20:35:02.148Z,100204.03
2022-08-09T20:38:08.658Z,100208.66
2022-08-09T20:40:26.511Z,100201.63
2022-08-09T20:43:00.421Z,100211.56
2022-08-09T20:46:00.492Z,100207.06
2022-08-09T20:48:31.706Z,100212.50
2022-08-09T20:51:01.275Z,100207.19
2022-08-09T20:53:36.912Z,100205.53
2022-08-09T20:56:20.529Z,100212.75
2022-08-09T20:58:58.846Z,100219.09
2022-08-09T21:01:33.248Z,100215.53
2022-08-09T21:05:50.730Z,100217.31
2022-08-09T21:07:11.962Z,100214.75
2022-08-09T21:09:56.869Z,100220.22
2022-08-09T21:15:23.728Z,100227.47
2022-08-09T21:18:21.069Z,100224.81
2022-08-09T21:20:54.215Z,100224.00
2022-08-09T21:23:35.944Z,100225.88
2022-08-09T21:26:12.522Z,100231.41
2022-08-09T21:28:55.341Z,100220.72
2022-08-09T21:31:23.605Z,100227.88
2022-08-09T21:33:56.701Z,100231.56
2022-08-09T21:36:28.599Z,100229.75
2022-08-09T21:38:59.626Z,100230.69
2022-08-09T21:42:04.514Z,100221.75
2022-08-09T21:44:33.785Z,100218.25
2022-08-09T21:47:10.301Z,100224.50
2022-08-09T21:49:43.351Z,100222.75
2022-08-09T21:52:17.628Z,100228.06
2022-08-09T21:55:03.162Z,100229.84
2022-08-09T21:57:39.191Z,100230.69
2022-08-09T22:00:32.396Z,100231.56
2022-08-09T22:03:19.118Z,100242.25
2022-08-09T22:05:53.307Z,100242.22
2022-08-09T22:08:25.932Z,100248.50
2022-08-09T22:11:26.442Z,100250.34
2022-08-09T22:13:48.830Z,100245.84
2022-08-09T22:16:22.864Z,100249.47
2022-08-09T22:18:55.915Z,100253.91
2022-08-09T22:21:51.186Z,100265.50
2022-08-09T22:24:24.066Z,100267.25
2022-08-09T22:26:53.745Z,100270.75
2022-08-09T22:29:28.824Z,100281.41
2022-08-09T22:32:07.212Z,100284.97
2022-08-09T22:35:02.259Z,100286.69
2022-08-09T22:38:07.144Z,100292.91
2022-08-09T22:40:35.743Z,100288.50
2022-08-09T22:43:16.192Z,100284.91
2022-08-09T22:48:16.013Z,100295.69
2022-08-09T22:48:39.026Z,100293.03
2022-08-09T22:51:23.738Z,100293.00
2022-08-09T22:54:01.070Z,100291.22
2022-08-09T22:56:59.484Z,100293.91
2022-08-09T22:59:55.905Z,100298.38
2022-08-09T23:02:15.948Z,100292.13
2022-08-09T23:04:53.668Z,100294.75
2022-08-09T23:08:27.826Z,100298.31
2022-08-09T23:10:38.204Z,100297.47
2022-08-09T23:13:12.687Z,100302.88
2022-08-09T23:15:43.122Z,100297.56
2022-08-09T23:18:11.449Z,100301.25
2022-08-09T23:20:38.881Z,100303.09
2022-08-09T23:23:31.866Z,100295.03
2022-08-09T23:26:01.950Z,100291.47
2022-08-09T23:28:34.126Z,100288.81
2022-08-09T23:31:03.570Z,100295.09
2022-08-09T23:34:00.952Z,100296.03
2022-08-09T23:36:56.837Z,100298.66
2022-08-09T23:39:25.182Z,100296.00
2022-08-09T23:41:52.530Z,100301.34
2022-08-09T23:44:22.360Z,100301.44
2022-08-09T23:46:52.892Z,100305.03
2022-08-09T23:49:26.084Z,100307.75
2022-08-09T23:51:54.216Z,100308.63
2022-08-09T23:54:26.740Z,100306.91
2022-08-09T23:56:58.212Z,100307.81
